createdAt,value
2023-03-21T00:00:07.360Z,99063.06
2023-03-21T00:01:40.464Z,99063.72
2023-03-21T00:03:15.725Z,99060.81
2023-03-21T00:04:53.563Z,99050.19
2023-03-21T00:06:28.388Z,99043.28
2023-03-21T00:08:02.644Z,99043.38
2023-03-21T00:09:36.792Z,99054.63
2023-03-21T00:11:12.221Z,99052.63
2023-03-21T00:12:44.492Z,99069.22
2023-03-21T00:14:18.980Z,99054.06
2023-03-21T00:16:05.375Z,99051.25
2023-03-21T00:17:45.150Z,99046.56
2023-03-21T00:19:19.319Z,99042.97
2023-03-21T00:21:35.546Z,99034.91
2023-03-21T00:22:57.922Z,99033.28
2023-03-21T00:24:31.061Z,99035.00
2023-03-21T00:26:04.347Z,99028.22
2023-03-21T00:27:56.954Z,99031.88
2023-03-21T00:29:30.697Z,99033.94
2023-03-21T00:31:03.881Z,99023.47
2023-03-21T00:32:45.915Z,99003.47
2023-03-21T00:34:31.872Z,99028.66
2023-03-21T00:36:16.776Z,99037.59
2023-03-21T00:37:50.359Z,99041.03
2023-03-21T00:39:24.901Z,99029.44
2023-03-21T00:41:01.962Z,99021.31
2023-03-21T00:42:38.517Z,99026.41
2023-03-21T00:44:13.845Z,99035.94
2023-03-21T00:45:46.679Z,99037.16
2023-03-21T00:47:19.820Z,99039.16
2023-03-21T00:48:53.325Z,99024.25
2023-03-21T00:50:27.723Z,98997.44
2023-03-21T00:52:14.670Z,99011.22
2023-03-21T00:53:49.041Z,99021.97
2023-03-21T00:55:23.937Z,99016.91
2023-03-21T00:56:57.078Z,99033.16
2023-03-21T00:58:29.322Z,99024.63
2023-03-21T01:00:02.469Z,99024.53
2023-03-21T01:01:38.201Z,99013.78
2023-03-21T01:03:24.332Z,99023.31
2023-03-21T01:04:58.268Z,99031.13
2023-03-21T01:06:30.461Z,99030.25
2023-03-21T01:08:08.161Z,99023.13
2023-03-21T01:09:46.806Z,99022.09
2023-03-21T01:11:22.952Z,99018.63
2023-03-21T01:12:56.527Z,99021.88
2023-03-21T01:14:29.967Z,99001.00
2023-03-21T01:16:03.475Z,99006.97
2023-03-21T01:17:36.663Z,99004.31
2023-03-21T01:19:23.982Z,99009.50
2023-03-21T01:21:00.273Z,99005.84
2023-03-21T01:22:33.352Z,99002.22
2023-03-21T01:24:07.515Z,98997.81
2023-03-21T01:25:41.454Z,99001.19
2023-03-21T01:27:16.509Z,98995.09
2023-03-21T01:28:49.723Z,98991.97
2023-03-21T01:30:24.126Z,98993.88
2023-03-21T01:31:58.114Z,98997.88
2023-03-21T01:33:32.783Z,98982.69
2023-03-21T01:35:06.998Z,98985.03
2023-03-21T01:36:40.373Z,98994.63
2023-03-21T01:38:16.637Z,98997.97
2023-03-21T01:39:50.999Z,98999.69
2023-03-21T01:41:42.123Z,98987.53
2023-03-21T01:43:27.579Z,98979.03
2023-03-21T01:45:03.651Z,98965.91
2023-03-21T01:47:12.577Z,98978.25
2023-03-21T01:48:58.178Z,98976.34
2023-03-21T01:50:31.753Z,98984.06
2023-03-21T01:52:39.687Z,98959.59
2023-03-21T01:54:25.440Z,98962.44
2023-03-21T01:55:58.934Z,98967.63
2023-03-21T01:58:05.896Z,98965.56
2023-03-21T02:00:12.672Z,98969.75
2023-03-21T02:02:07.586Z,99000.06
2023-03-21T02:03:51.499Z,98999.03
2023-03-21T02:05:45.369Z,98991.88
2023-03-21T02:07:25.894Z,98982.06
2023-03-21T02:09:10.080Z,98989.25
2023-03-21T02:10:48.000Z,99009.94
2023-03-21T02:12:33.608Z,99008.03
2023-03-21T02:14:15.289Z,99006.03
2023-03-21T02:16:09.258Z,99007.78
2023-03-21T02:17:54.351Z,99005.94
2023-03-21T02:20:22.196Z,99000.72
2023-03-21T02:22:22.230Z,98998.13
2023-03-21T02:24:37.999Z,99009.59
2023-03-21T02:27:01.468Z,98999.00
2023-03-21T02:28:43.465Z,99008.56
2023-03-21T02:31:06.684Z,98995.28
2023-03-21T02:33:01.049Z,98995.41
2023-03-21T02:34:54.596Z,98988.50
2023-03-21T02:36:55.733Z,98991.47
2023-03-21T02:38:37.843Z,98995.59
2023-03-21T02:40:16.180Z,98980.13
2023-03-21T02:41:52.442Z,98987.19
2023-03-21T02:43:45.742Z,99005.72
2023-03-21T02:45:21.807Z,99010.81
2023-03-21T02:47:08.840Z,99002.22
2023-03-21T02:48:52.127Z,98997.44
2023-03-21T02:50:30.855Z,99005.38
2023-03-21T02:52:16.836Z,99005.28
2023-03-21T02:54:24.909Z,99012.88
2023-03-21T02:55:55.025Z,99014.63
2023-03-21T02:57:40.072Z,99012.69
2023-03-21T02:59:19.104Z,99011.75
2023-03-21T03:00:55.561Z,99018.97
2023-03-21T03:02:36.773Z,99021.66
2023-03-21T03:04:22.837Z,99013.69
2023-03-21T03:06:00.106Z,99022.28
2023-03-21T03:07:42.542Z,99023.91
2023-03-21T03:09:32.632Z,99017.72
2023-03-21T03:11:20.334Z,99014.97
2023-03-21T03:13:01.046Z,99028.97
2023-03-21T03:15:02.790Z,99014.81
2023-03-21T03:16:44.792Z,99020.84
2023-03-21T03:18:23.593Z,99021.66
2023-03-21T03:20:16.587Z,99016.34
2023-03-21T03:21:57.893Z,99021.47
2023-03-21T03:23:39.002Z,99015.16
2023-03-21T03:25:23.082Z,99015.25
2023-03-21T03:27:10.081Z,99015.38
2023-03-21T03:28:47.968Z,99028.34
2023-03-21T03:30:29.738Z,99028.34
2023-03-21T03:32:12.204Z,99020.59
2023-03-21T03:33:52.150Z,99014.25
2023-03-21T03:35:27.438Z,99015.84
2023-03-21T03:37:04.637Z,99021.22
2023-03-21T03:38:41.864Z,99017.56
2023-03-21T03:40:21.867Z,99009.66
2023-03-21T03:42:25.533Z,99011.31
2023-03-21T03:44:06.973Z,99008.75
2023-03-21T03:45:48.724Z,99014.25
2023-03-21T03:47:33.758Z,99011.56
2023-03-21T03:49:15.490Z,99015.31
2023-03-21T03:50:53.304Z,99010.09
2023-03-21T03:52:50.005Z,99009.13
2023-03-21T03:54:33.467Z,99019.63
2023-03-21T03:56:12.739Z,99008.97
2023-03-21T03:57:47.732Z,99003.69
2023-03-21T03:59:23.428Z,99007.06
2023-03-21T04:01:17.635Z,99011.56
2023-03-21T04:02:51.188Z,99013.91
2023-03-21T04:04:29.447Z,99000.69
2023-03-21T04:06:05.144Z,98993.81
2023-03-21T04:07:37.381Z,98998.22
2023-03-21T04:09:20.512Z,99006.81
2023-03-21T04:10:57.367Z,99004.84
2023-03-21T04:12:32.716Z,99003.13
2023-03-21T04:14:46.950Z,99000.59
2023-03-21T04:16:24.483Z,98987.50
2023-03-21T04:17:58.217Z,98988.50
2023-03-21T04:19:30.455Z,98982.13
2023-03-21T04:21:04.088Z,98990.75
2023-03-21T04:22:38.121Z,98996.78
2023-03-21T04:24:12.072Z,98992.22
2023-03-21T04:25:55.864Z,99002.56
2023-03-21T04:27:35.892Z,99004.94
2023-03-21T04:29:32.424Z,99009.09
2023-03-21T04:31:41.699Z,99003.81
2023-03-21T04:33:18.804Z,99009.22
2023-03-21T04:35:02.881Z,99011.09
2023-03-21T04:36:43.055Z,99019.00
2023-03-21T04:38:16.368Z,99011.72
2023-03-21T04:39:50.536Z,99009.97
2023-03-21T04:41:23.689Z,99005.63
2023-03-21T04:43:01.312Z,99013.69
2023-03-21T04:44:34.765Z,99015.50
2023-03-21T04:46:09.281Z,99017.34
2023-03-21T04:47:42.870Z,99016.38
2023-03-21T04:49:16.237Z,99015.63
2023-03-21T04:50:50.412Z,99026.28
2023-03-21T04:52:25.415Z,99022.94
2023-03-21T04:53:58.724Z,99026.59
2023-03-21T04:55:32.520Z,99017.19
2023-03-21T04:57:05.939Z,99017.94
2023-03-21T04:58:41.768Z,99020.59
2023-03-21T05:00:16.059Z,99028.22
2023-03-21T05:01:50.104Z,99021.13
2023-03-21T05:03:23.238Z,99028.00
2023-03-21T05:04:57.643Z,99020.03
2023-03-21T05:06:32.173Z,99025.94
2023-03-21T05:08:06.526Z,99030.25
2023-03-21T05:09:39.676Z,99025.75
2023-03-21T05:11:13.505Z,99030.91
2023-03-21T05:12:46.666Z,99028.03
2023-03-21T05:14:22.989Z,99030.56
2023-03-21T05:15:55.435Z,99025.28
2023-03-21T05:17:29.865Z,99029.47
2023-03-21T05:19:05.228Z,99028.28
2023-03-21T05:20:43.765Z,99026.13
2023-03-21T05:22:19.460Z,99034.59
2023-03-21T05:23:55.536Z,99031.03
2023-03-21T05:25:34.908Z,99028.84
2023-03-21T05:27:36.699Z,99027.78
2023-03-21T05:29:17.935Z,99046.31
2023-03-21T05:30:58.969Z,99035.47
2023-03-21T05:32:33.061Z,99041.91
2023-03-21T05:34:06.717Z,99037.31
2023-03-21T05:35:41.430Z,99052.59
2023-03-21T05:37:17.069Z,99048.69
2023-03-21T05:38:54.024Z,99043.69
2023-03-21T05:40:27.686Z,99046.84
2023-03-21T05:42:04.379Z,99037.81
2023-03-21T05:43:37.867Z,99036.41
2023-03-21T05:45:10.894Z,99037.31
2023-03-21T05:46:46.564Z,99042.53
2023-03-21T05:48:24.215Z,99033.34
2023-03-21T05:50:16.271Z,99038.75
2023-03-21T05:51:56.995Z,99039.63
2023-03-21T05:53:31.158Z,99027.28
2023-03-21T05:55:05.464Z,99032.22
2023-03-21T05:56:38.626Z,99032.97
2023-03-21T05:58:13.508Z,99035.66
2023-03-21T05:59:51.354Z,99031.91
2023-03-21T06:01:25.623Z,99035.00
2023-03-21T06:03:13.926Z,99037.31
2023-03-21T06:05:04.121Z,99039.63
2023-03-21T06:06:37.359Z,99032.72
2023-03-21T06:08:10.911Z,99029.75
2023-03-21T06:09:44.235Z,99033.44
2023-03-21T06:11:26.258Z,99046.13
2023-03-21T06:13:14.137Z,99032.06
2023-03-21T06:14:47.799Z,99040.75
2023-03-21T06:16:37.041Z,99036.81
2023-03-21T06:18:10.287Z,99035.97
2023-03-21T06:19:47.430Z,99035.97
2023-03-21T06:21:27.007Z,99039.41
2023-03-21T06:23:00.826Z,99031.09
2023-03-21T06:24:35.593Z,99037.19
2023-03-21T06:26:08.561Z,99030.81
2023-03-21T06:27:42.584Z,99034.03
2023-03-21T06:29:16.294Z,99039.56
2023-03-21T06:30:54.360Z,99044.59
2023-03-21T06:32:30.960Z,99043.19
2023-03-21T06:34:13.081Z,99045.94
2023-03-21T06:35:52.601Z,99044.84
2023-03-21T06:37:27.016Z,99045.53
2023-03-21T06:39:00.733Z,99047.94
2023-03-21T06:40:34.740Z,99043.66
2023-03-21T06:42:08.195Z,99037.63
2023-03-21T06:43:41.872Z,99041.06
2023-03-21T06:45:15.047Z,99039.63
2023-03-21T06:46:49.319Z,99040.00
2023-03-21T06:48:25.943Z,99030.38
2023-03-21T06:49:59.233Z,99041.25
2023-03-21T06:51:34.203Z,99043.16
2023-03-21T06:53:20.706Z,99031.44
2023-03-21T06:55:19.597Z,99039.16
2023-03-21T06:56:54.298Z,99030.38
2023-03-21T06:58:32.843Z,99034.38
2023-03-21T07:00:08.515Z,99030.50
2023-03-21T07:01:42.925Z,99031.81
2023-03-21T07:03:17.280Z,99028.59
2023-03-21T07:04:50.404Z,99024.13
2023-03-21T07:06:28.072Z,99031.31
2023-03-21T07:08:03.549Z,99027.75
2023-03-21T07:09:39.936Z,99029.63
2023-03-21T07:11:13.236Z,99032.84
2023-03-21T07:12:45.835Z,99027.75
2023-03-21T07:14:28.381Z,99028.19
2023-03-21T07:16:01.908Z,99026.22
2023-03-21T07:17:35.095Z,99032.44
2023-03-21T07:19:08.306Z,99027.91
2023-03-21T07:20:41.963Z,99021.91
2023-03-21T07:22:15.194Z,99025.78
2023-03-21T07:23:50.399Z,99022.84
2023-03-21T07:25:23.687Z,99022.38
2023-03-21T07:26:57.688Z,99020.19
2023-03-21T07:28:32.326Z,99019.84
2023-03-21T07:30:06.681Z,99016.06
2023-03-21T07:31:40.010Z,99014.19
2023-03-21T07:33:14.078Z,99011.88
2023-03-21T07:34:47.459Z,99017.53
2023-03-21T07:36:21.437Z,99020.50
2023-03-21T07:37:53.580Z,99021.13
2023-03-21T07:39:30.079Z,99012.06
2023-03-21T07:41:03.570Z,99008.38
2023-03-21T07:42:40.571Z,99005.16
2023-03-21T07:44:14.672Z,99003.97
2023-03-21T07:45:48.310Z,98993.56
2023-03-21T07:47:22.021Z,98993.69
2023-03-21T07:48:55.118Z,99001.97
2023-03-21T07:50:28.494Z,98998.69
2023-03-21T07:52:04.605Z,99004.06
2023-03-21T07:53:38.343Z,98993.13
2023-03-21T07:55:12.860Z,98985.66
2023-03-21T07:56:46.303Z,98986.56
2023-03-21T07:58:20.167Z,98984.22
2023-03-21T07:59:53.650Z,98986.06
2023-03-21T08:01:27.064Z,98992.88
2023-03-21T08:03:00.589Z,98990.59
2023-03-21T08:04:37.895Z,98989.09
2023-03-21T08:06:12.110Z,98987.44
2023-03-21T08:07:45.533Z,98979.25
2023-03-21T08:09:18.720Z,98989.66
2023-03-21T08:10:53.475Z,98986.53
2023-03-21T08:12:26.779Z,98986.19
2023-03-21T08:14:00.467Z,98981.66
2023-03-21T08:15:33.748Z,98990.88
2023-03-21T08:17:09.635Z,98981.16
2023-03-21T08:18:42.910Z,98983.31
2023-03-21T08:20:21.246Z,98973.59
2023-03-21T08:21:54.956Z,98979.09
2023-03-21T08:23:28.508Z,98974.13
2023-03-21T08:25:01.862Z,98982.66
2023-03-21T08:26:36.444Z,98968.25
2023-03-21T08:28:09.689Z,98972.22
2023-03-21T08:29:43.259Z,98953.69
2023-03-21T08:31:18.214Z,98974.94
2023-03-21T08:32:51.585Z,98968.81
2023-03-21T08:34:24.894Z,98973.44
2023-03-21T08:36:01.098Z,98967.06
2023-03-21T08:37:34.669Z,98970.75
2023-03-21T08:39:07.841Z,98962.69
2023-03-21T08:40:41.491Z,98961.72
2023-03-21T08:42:16.555Z,98955.88
2023-03-21T08:43:49.922Z,98959.50
2023-03-21T08:45:23.956Z,98961.94
2023-03-21T08:46:57.113Z,98953.06
2023-03-21T08:48:30.652Z,98954.88
2023-03-21T08:50:06.701Z,98951.00
2023-03-21T08:51:41.297Z,98954.66
2023-03-21T08:53:14.521Z,98951.72
2023-03-21T08:54:48.718Z,98956.84
2023-03-21T08:56:21.984Z,98960.63
2023-03-21T08:57:57.277Z,98957.47
2023-03-21T08:59:30.532Z,98960.38
2023-03-21T09:01:04.079Z,98963.59
2023-03-21T09:02:37.414Z,98952.03
2023-03-21T09:04:11.335Z,98952.72
2023-03-21T09:05:45.606Z,98944.56
2023-03-21T09:07:19.101Z,98951.00
2023-03-21T09:08:53.639Z,98959.78
2023-03-21T09:10:26.860Z,98951.41
2023-03-21T09:12:00.279Z,98946.06
2023-03-21T09:13:35.676Z,98941.47
2023-03-21T09:15:10.593Z,98950.13
2023-03-21T09:16:43.680Z,98939.78
2023-03-21T09:18:18.291Z,98947.59
2023-03-21T09:19:51.488Z,98951.00
2023-03-21T09:21:25.314Z,98940.78
2023-03-21T09:22:58.442Z,98945.03
2023-03-21T09:24:31.855Z,98948.28
2023-03-21T09:26:05.889Z,98941.78
2023-03-21T09:27:39.452Z,98933.22
2023-03-21T09:29:15.984Z,98935.09
2023-03-21T09:30:49.116Z,98933.66
2023-03-21T09:32:22.242Z,98932.50
2023-03-21T09:33:57.706Z,98934.22
2023-03-21T09:35:31.471Z,98944.97
2023-03-21T09:37:10.129Z,98933.34
2023-03-21T09:38:45.722Z,98934.16
2023-03-21T09:40:21.998Z,98938.69
2023-03-21T09:42:20.861Z,98938.44
2023-03-21T09:44:08.456Z,98931.97
2023-03-21T09:45:49.654Z,98936.22
2023-03-21T09:47:25.294Z,98929.41
2023-03-21T09:49:01.085Z,98940.22
2023-03-21T09:50:38.068Z,98936.81
2023-03-21T09:52:18.297Z,98930.81
2023-03-21T09:53:57.038Z,98934.22
2023-03-21T09:55:32.672Z,98934.53
2023-03-21T09:57:16.166Z,98943.03
2023-03-21T09:58:54.750Z,98937.09
2023-03-21T10:00:32.081Z,98928.81
2023-03-21T10:02:21.918Z,98922.44
2023-03-21T10:03:56.192Z,98925.28
2023-03-21T10:05:32.683Z,98923.72
2023-03-21T10:07:06.067Z,98914.03
2023-03-21T10:08:42.577Z,98911.09
2023-03-21T10:10:21.645Z,98915.06
2023-03-21T10:12:00.048Z,98920.34
2023-03-21T10:13:36.297Z,98912.56
2023-03-21T10:15:14.827Z,98922.66
2023-03-21T10:16:50.813Z,98914.69
2023-03-21T10:18:29.205Z,98914.78
2023-03-21T10:20:13.467Z,98924.69
2023-03-21T10:22:00.774Z,98918.75
2023-03-21T10:23:35.256Z,98928.69
2023-03-21T10:25:12.460Z,98924.75
2023-03-21T10:26:48.128Z,98922.31
2023-03-21T10:28:23.878Z,98916.66
2023-03-21T10:29:57.611Z,98912.97
2023-03-21T10:31:31.593Z,98912.78
2023-03-21T10:33:09.773Z,98900.59
2023-03-21T10:34:47.593Z,98915.75
2023-03-21T10:36:25.835Z,98916.44
2023-03-21T10:37:59.080Z,98911.31
2023-03-21T10:39:36.811Z,98903.81
2023-03-21T10:41:12.056Z,98907.41
2023-03-21T10:42:45.819Z,98909.44
2023-03-21T10:44:20.845Z,98903.19
2023-03-21T10:45:55.987Z,98914.66
2023-03-21T10:47:32.475Z,98900.03
2023-03-21T10:49:09.183Z,98897.91
2023-03-21T10:50:46.214Z,98895.34
2023-03-21T10:52:22.309Z,98891.25
2023-03-21T10:53:57.856Z,98893.25
2023-03-21T10:55:34.150Z,98883.91
2023-03-21T10:57:11.998Z,98889.72
2023-03-21T10:58:48.104Z,98887.03
2023-03-21T11:00:24.322Z,98891.41
2023-03-21T11:01:58.432Z,98892.38
2023-03-21T11:03:33.897Z,98886.91
2023-03-21T11:05:20.635Z,98878.50
2023-03-21T11:06:58.150Z,98881.41
2023-03-21T11:08:31.879Z,98871.91
2023-03-21T11:10:20.053Z,98883.31
2023-03-21T11:12:06.170Z,98872.25
2023-03-21T11:13:41.327Z,98870.91
2023-03-21T11:15:29.025Z,98861.09
2023-03-21T11:17:02.633Z,98864.16
2023-03-21T11:18:42.075Z,98861.25
2023-03-21T11:20:20.060Z,98863.25
2023-03-21T11:21:57.607Z,98854.28
2023-03-21T11:23:32.887Z,98862.84
2023-03-21T11:25:09.622Z,98859.19
2023-03-21T11:26:45.099Z,98856.28
2023-03-21T11:28:22.427Z,98851.66
2023-03-21T11:29:56.146Z,98860.94
2023-03-21T11:31:39.680Z,98858.38
2023-03-21T11:33:13.530Z,98852.16
2023-03-21T11:34:49.550Z,98856.41
2023-03-21T11:36:35.177Z,98856.16
2023-03-21T11:38:27.376Z,98853.47
2023-03-21T11:40:09.544Z,98845.47
2023-03-21T11:41:44.267Z,98838.66
2023-03-21T11:43:29.787Z,98835.78
2023-03-21T11:45:11.716Z,98831.69
2023-03-21T11:46:45.079Z,98822.69
2023-03-21T11:48:18.392Z,98827.75
2023-03-21T11:49:58.352Z,98820.31
2023-03-21T11:51:46.317Z,98821.63
2023-03-21T11:53:35.568Z,98824.69
2023-03-21T11:55:24.033Z,98822.38
2023-03-21T11:57:06.262Z,98822.94
2023-03-21T11:58:54.156Z,98815.13
2023-03-21T12:00:34.492Z,98810.44
2023-03-21T12:02:38.142Z,98809.88
2023-03-21T12:04:22.079Z,98819.75
2023-03-21T12:05:59.574Z,98809.88
2023-03-21T12:07:46.107Z,98815.03
2023-03-21T12:09:38.560Z,98813.56
2023-03-21T12:11:19.819Z,98816.38
2023-03-21T12:13:01.656Z,98812.69
2023-03-21T12:14:44.191Z,98810.25
2023-03-21T12:16:29.129Z,98802.00
2023-03-21T12:18:11.126Z,98804.34
2023-03-21T12:20:06.099Z,98800.09
2023-03-21T12:21:46.148Z,98804.97
2023-03-21T12:23:43.891Z,98799.72
2023-03-21T12:25:23.480Z,98796.09
2023-03-21T12:27:05.477Z,98808.19
2023-03-21T12:28:51.001Z,98804.00
2023-03-21T12:30:39.956Z,98796.66
2023-03-21T12:32:22.944Z,98796.09
2023-03-21T12:34:10.065Z,98786.72
2023-03-21T12:36:00.902Z,98790.34
2023-03-21T12:37:41.567Z,98797.47
2023-03-21T12:39:22.639Z,98792.59
2023-03-21T12:41:18.533Z,98784.59
2023-03-21T12:43:08.982Z,98788.25
2023-03-21T12:44:46.950Z,98780.69
2023-03-21T12:46:25.380Z,98781.22
2023-03-21T12:48:18.804Z,98772.66
2023-03-21T12:49:57.225Z,98778.56
2023-03-21T12:51:34.338Z,98776.81
2023-03-21T12:53:26.283Z,98783.63
2023-03-21T12:55:03.887Z,98787.28
2023-03-21T12:56:42.772Z,98784.97
2023-03-21T12:58:18.480Z,98797.56
2023-03-21T12:59:57.513Z,98779.88
2023-03-21T13:01:31.655Z,98779.97
2023-03-21T13:03:10.475Z,98780.22
2023-03-21T13:04:48.578Z,98790.09
2023-03-21T13:06:26.969Z,98784.13
2023-03-21T13:08:06.090Z,98782.63
2023-03-21T13:09:40.493Z,98779.47
2023-03-21T13:11:16.600Z,98776.06
2023-03-21T13:13:03.623Z,98776.06
2023-03-21T13:14:44.350Z,98771.72
2023-03-21T13:16:22.364Z,98764.84
2023-03-21T13:18:03.407Z,98769.28
2023-03-21T13:19:42.574Z,98775.75
2023-03-21T13:21:20.670Z,98765.03
2023-03-21T13:22:53.841Z,98775.13
2023-03-21T13:24:33.938Z,98761.25
2023-03-21T13:26:11.382Z,98758.34
2023-03-21T13:27:47.285Z,98755.38
2023-03-21T13:29:27.903Z,98772.22
2023-03-21T13:31:21.188Z,98759.53
2023-03-21T13:33:05.744Z,98760.03
2023-03-21T13:34:41.808Z,98766.38
2023-03-21T13:36:16.881Z,98763.94
2023-03-21T13:37:54.163Z,98769.88
2023-03-21T13:39:29.778Z,98751.75
2023-03-21T13:41:08.238Z,98761.94
2023-03-21T13:42:46.933Z,98765.88
2023-03-21T13:44:41.149Z,98756.59
2023-03-21T13:46:16.210Z,98757.59
2023-03-21T13:47:55.185Z,98759.53
2023-03-21T13:49:32.481Z,98756.84
2023-03-21T13:51:07.215Z,98753.91
2023-03-21T13:52:40.332Z,98758.34
2023-03-21T13:54:24.417Z,98746.97
2023-03-21T13:56:07.977Z,98755.75
2023-03-21T13:57:41.460Z,98749.28
2023-03-21T13:59:19.212Z,98746.59
2023-03-21T14:01:18.075Z,98743.91
2023-03-21T14:02:57.403Z,98742.94
2023-03-21T14:04:41.885Z,98752.97
2023-03-21T14:06:19.512Z,98756.03
2023-03-21T14:08:05.987Z,98753.66
2023-03-21T14:09:47.380Z,98745.41
2023-03-21T14:11:21.360Z,98750.78
2023-03-21T14:12:54.776Z,98751.66
2023-03-21T14:14:33.353Z,98755.34
2023-03-21T14:16:12.867Z,98753.91
2023-03-21T14:17:53.032Z,98757.31
2023-03-21T14:19:31.013Z,98752.69
2023-03-21T14:21:07.010Z,98756.59
2023-03-21T14:22:42.553Z,98749.31
2023-03-21T14:24:17.775Z,98748.44
2023-03-21T14:25:52.270Z,98749.31
2023-03-21T14:27:30.788Z,98749.31
2023-03-21T14:29:12.313Z,98756.59
2023-03-21T14:30:55.116Z,98760.50
2023-03-21T14:32:31.795Z,98748.09
2023-03-21T14:34:06.040Z,98748.81
2023-03-21T14:35:42.394Z,98747.63
2023-03-21T14:37:28.538Z,98753.81
2023-03-21T14:39:07.489Z,98740.75
2023-03-21T14:40:49.340Z,98746.13
2023-03-21T14:42:27.243Z,98745.53
2023-03-21T14:44:12.123Z,98743.44
2023-03-21T14:45:49.254Z,98738.44
2023-03-21T14:47:25.270Z,98735.53
2023-03-21T14:49:13.789Z,98739.16
2023-03-21T14:50:50.646Z,98743.81
2023-03-21T14:52:26.541Z,98735.88
2023-03-21T14:53:59.834Z,98744.06
2023-03-21T14:55:33.077Z,98741.97
2023-03-21T14:57:09.112Z,98744.41
2023-03-21T14:58:45.566Z,98744.41
2023-03-21T15:00:27.747Z,98743.19
2023-03-21T15:02:03.876Z,98738.34
2023-03-21T15:03:37.622Z,98745.66
2023-03-21T15:05:19.120Z,98742.25
2023-03-21T15:06:56.124Z,98738.59
2023-03-21T15:08:31.208Z,98737.97
2023-03-21T15:10:08.048Z,98750.28
2023-03-21T15:11:40.788Z,98737.72
2023-03-21T15:13:17.792Z,98753.69
2023-03-21T15:14:51.532Z,98750.78
2023-03-21T15:16:25.029Z,98749.31
2023-03-21T15:18:04.204Z,98742.25
2023-03-21T15:19:40.502Z,98748.97
2023-03-21T15:21:22.444Z,98747.31
2023-03-21T15:22:59.288Z,98745.50
2023-03-21T15:24:34.992Z,98757.13
2023-03-21T15:26:08.851Z,98737.38
2023-03-21T15:27:44.023Z,98754.06
2023-03-21T15:29:18.766Z,98739.69
2023-03-21T15:30:54.566Z,98739.06
2023-03-21T15:32:30.039Z,98737.56
2023-03-21T15:34:04.611Z,98741.25
2023-03-21T15:35:41.480Z,98741.03
2023-03-21T15:37:23.153Z,98736.59
2023-03-21T15:38:57.347Z,98737.56
2023-03-21T15:40:33.258Z,98742.72
2023-03-21T15:42:08.472Z,98740.13
2023-03-21T15:43:42.509Z,98755.25
2023-03-21T15:45:21.416Z,98749.75
2023-03-21T15:46:55.426Z,98752.94
2023-03-21T15:48:30.428Z,98743.44
2023-03-21T15:50:11.442Z,98743.91
2023-03-21T15:51:47.681Z,98755.75
2023-03-21T15:53:22.691Z,98756.56
2023-03-21T15:54:56.928Z,98760.47
2023-03-21T15:56:35.032Z,98760.84
2023-03-21T15:58:17.081Z,98753.28
2023-03-21T15:59:50.713Z,98760.56
2023-03-21T16:01:26.424Z,98764.22
2023-03-21T16:03:06.579Z,98763.84
2023-03-21T16:04:57.970Z,98758.25
2023-03-21T16:06:34.200Z,98761.16
2023-03-21T16:08:20.642Z,98757.94
2023-03-21T16:10:01.262Z,98763.78
2023-03-21T16:11:39.867Z,98762.09
2023-03-21T16:13:13.828Z,98753.50
2023-03-21T16:14:48.956Z,98757.16
2023-03-21T16:16:24.798Z,98758.50
2023-03-21T16:17:59.953Z,98754.69
2023-03-21T16:19:33.082Z,98749.16
2023-03-21T16:21:06.744Z,98755.84
2023-03-21T16:22:39.912Z,98746.34
2023-03-21T16:24:13.676Z,98754.09
2023-03-21T16:25:48.215Z,98755.50
2023-03-21T16:27:22.141Z,98747.81
2023-03-21T16:28:55.904Z,98747.44
2023-03-21T16:30:29.059Z,98741.91
2023-03-21T16:32:06.245Z,98744.69
2023-03-21T16:33:40.043Z,98748.56
2023-03-21T16:35:13.387Z,98749.22
2023-03-21T16:36:47.711Z,98756.72
2023-03-21T16:38:20.894Z,98756.94
2023-03-21T16:39:54.245Z,98756.09
2023-03-21T16:41:29.516Z,98765.94
2023-03-21T16:43:02.903Z,98764.19
2023-03-21T16:44:39.441Z,98762.94
2023-03-21T16:46:14.820Z,98751.94
2023-03-21T16:47:48.488Z,98761.16
2023-03-21T16:49:25.087Z,98764.44
2023-03-21T16:50:58.289Z,98765.94
2023-03-21T16:52:31.566Z,98758.00
2023-03-21T16:54:04.859Z,98758.47
2023-03-21T16:55:39.007Z,98759.31
2023-03-21T16:57:27.769Z,98747.13
2023-03-21T16:59:00.994Z,98754.84
2023-03-21T17:00:34.219Z,98756.75
2023-03-21T17:02:14.154Z,98760.59
2023-03-21T17:03:49.741Z,98753.66
2023-03-21T17:05:23.639Z,98755.47
2023-03-21T17:06:56.843Z,98753.16
2023-03-21T17:08:30.615Z,98759.34
2023-03-21T17:10:03.796Z,98758.38
2023-03-21T17:11:41.519Z,98762.97
2023-03-21T17:13:16.185Z,98754.97
2023-03-21T17:14:49.629Z,98750.59
2023-03-21T17:16:26.715Z,98748.66
2023-03-21T17:18:00.416Z,98767.34
2023-03-21T17:19:33.555Z,98753.97
2023-03-21T17:21:13.871Z,98758.50
2023-03-21T17:22:47.179Z,98764.88
2023-03-21T17:24:20.700Z,98753.38
2023-03-21T17:25:54.606Z,98769.41
2023-03-21T17:27:28.652Z,98774.94
2023-03-21T17:29:03.282Z,98779.56
2023-03-21T17:30:40.115Z,98769.72
2023-03-21T17:32:14.675Z,98770.59
2023-03-21T17:33:48.512Z,98776.03
2023-03-21T17:35:22.403Z,98779.22
2023-03-21T17:36:56.213Z,98762.88
2023-03-21T17:38:31.050Z,98777.72
2023-03-21T17:40:05.121Z,98783.28
2023-03-21T17:41:38.272Z,98790.97
2023-03-21T17:43:16.208Z,98788.41
2023-03-21T17:44:50.781Z,98787.13
2023-03-21T17:46:27.254Z,98796.53
2023-03-21T17:48:00.471Z,98792.34
2023-03-21T17:49:33.664Z,98793.31
2023-03-21T17:51:07.210Z,98781.81
2023-03-21T17:52:40.399Z,98785.88
2023-03-21T17:54:13.737Z,98791.19
2023-03-21T17:55:46.918Z,98785.97
2023-03-21T17:57:20.561Z,98783.47
2023-03-21T17:58:53.921Z,98783.84
2023-03-21T18:00:31.513Z,98774.16
2023-03-21T18:02:05.153Z,98785.59
2023-03-21T18:03:38.611Z,98780.44
2023-03-21T18:05:12.077Z,98773.00
2023-03-21T18:06:45.219Z,98771.28
2023-03-21T18:08:18.550Z,98781.94
2023-03-21T18:09:51.844Z,98783.31
2023-03-21T18:11:25.701Z,98772.22
2023-03-21T18:12:59.097Z,98772.13
2023-03-21T18:14:34.225Z,98776.38
2023-03-21T18:16:13.222Z,98772.66
2023-03-21T18:17:46.663Z,98765.38
2023-03-21T18:19:19.992Z,98766.13
2023-03-21T18:20:54.687Z,98768.81
2023-03-21T18:22:29.035Z,98750.78
2023-03-21T18:24:02.400Z,98767.41
2023-03-21T18:25:35.856Z,98773.63
2023-03-21T18:27:09.062Z,98774.03
2023-03-21T18:28:43.708Z,98772.31
2023-03-21T18:30:44.369Z,98761.84
2023-03-21T18:32:14.574Z,98765.47
2023-03-21T18:33:49.348Z,98760.97
2023-03-21T18:35:24.415Z,98759.47
2023-03-21T18:36:57.849Z,98769.09
2023-03-21T18:38:31.237Z,98766.94
2023-03-21T18:40:09.088Z,98769.72
2023-03-21T18:41:42.604Z,98768.84
2023-03-21T18:43:59.387Z,98767.78
2023-03-21T18:45:11.391Z,98773.13
2023-03-21T18:46:47.177Z,98767.78
2023-03-21T18:48:21.908Z,98769.91
2023-03-21T18:50:13.356Z,98771.63
2023-03-21T18:51:48.241Z,98765.44
2023-03-21T18:53:22.208Z,98766.50
2023-03-21T18:54:55.672Z,98767.34
2023-03-21T18:58:23.168Z,98761.56
2023-03-21T18:59:56.745Z,98761.78
2023-03-21T19:01:29.921Z,98763.72
2023-03-21T19:03:17.461Z,98769.03
2023-03-21T19:04:58.473Z,98777.56
2023-03-21T19:06:31.758Z,98763.47
2023-03-21T19:08:05.231Z,98780.59
2023-03-21T19:10:01.520Z,98777.19
2023-03-21T19:11:32.659Z,98774.91
2023-03-21T19:13:07.171Z,98792.63
2023-03-21T19:14:40.777Z,98789.50
2023-03-21T19:16:13.398Z,98795.47